sensor_id;sensor_type;location;lat;lon;timestamp;temperature;humidity
17565;DHT22;55308;52.134;5.606;2022-07-06T00:01:46;15.90;99.90
17565;DHT22;55308;52.134;5.606;2022-07-06T00:04:14;15.80;99.90
17565;DHT22;55308;52.134;5.606;2022-07-06T00:06:40;15.70;99.90
17565;DHT22;55308;52.134;5.606;2022-07-06T00:09:07;15.80;99.90
17565;DHT22;55308;52.134;5.606;2022-07-06T00:11:34;16.00;99.90
17565;DHT22;55308;52.134;5.606;2022-07-06T00:14:01;15.90;99.90
17565;DHT22;55308;52.134;5.606;2022-07-06T00:16:28;15.80;99.90
17565;DHT22;55308;52.134;5.606;2022-07-06T00:18:55;15.90;99.90
17565;DHT22;55308;52.134;5.606;2022-07-06T00:21:23;15.70;99.90
17565;DHT22;55308;52.134;5.606;2022-07-06T00:23:49;15.40;99.90
17565;DHT22;55308;52.134;5.606;2022-07-06T00:26:17;15.20;99.90
17565;DHT22;55308;52.134;5.606;2022-07-06T00:28:44;15.30;99.90
17565;DHT22;55308;52.134;5.606;2022-07-06T00:31:11;15.20;99.90
17565;DHT22;55308;52.134;5.606;2022-07-06T00:33:37;15.30;99.90
17565;DHT22;55308;52.134;5.606;2022-07-06T00:36:04;15.50;99.90
17565;DHT22;55308;52.134;5.606;2022-07-06T00:38:33;15.50;99.90
17565;DHT22;55308;52.134;5.606;2022-07-06T00:40:59;15.70;99.90
17565;DHT22;55308;52.134;5.606;2022-07-06T00:43:26;15.60;99.90
17565;DHT22;55308;52.134;5.606;2022-07-06T00:45:53;15.40;99.90
17565;DHT22;55308;52.134;5.606;2022-07-06T00:48:19;15.30;99.90
17565;DHT22;55308;52.134;5.606;2022-07-06T00:50:46;15.30;99.90
17565;DHT22;55308;52.134;5.606;2022-07-06T00:53:13;15.30;99.90
17565;DHT22;55308;52.134;5.606;2022-07-06T00:55:41;15.30;99.90
17565;DHT22;55308;52.134;5.606;2022-07-06T00:58:09;15.40;99.90
17565;DHT22;55308;52.134;5.606;2022-07-06T01:00:36;15.30;99.90
17565;DHT22;55308;52.134;5.606;2022-07-06T01:03:03;15.20;99.90
17565;DHT22;55308;52.134;5.606;2022-07-06T01:05:30;15.20;99.90
17565;DHT22;55308;52.134;5.606;2022-07-06T01:07:57;15.30;99.90
17565;DHT22;55308;52.134;5.606;2022-07-06T01:10:24;15.40;99.90
17565;DHT22;55308;52.134;5.606;2022-07-06T01:12:52;15.50;99.90
17565;DHT22;55308;52.134;5.606;2022-07-06T01:15:20;15.40;99.90
17565;DHT22;55308;52.134;5.606;2022-07-06T01:17:47;15.40;99.90
17565;DHT22;55308;52.134;5.606;2022-07-06T01:20:16;15.40;99.90
17565;DHT22;55308;52.134;5.606;2022-07-06T01:22:43;15.40;99.90
17565;DHT22;55308;52.134;5.606;2022-07-06T01:25:10;15.40;99.90
17565;DHT22;55308;52.134;5.606;2022-07-06T01:27:38;15.40;99.90
17565;DHT22;55308;52.134;5.606;2022-07-06T01:30:08;15.40;99.90
17565;DHT22;55308;52.134;5.606;2022-07-06T01:32:35;15.30;99.90
17565;DHT22;55308;52.134;5.606;2022-07-06T01:35:05;15.20;99.90
17565;DHT22;55308;52.134;5.606;2022-07-06T01:37:34;15.20;99.90
17565;DHT22;55308;52.134;5.606;2022-07-06T01:40:02;15.10;99.90
17565;DHT22;55308;52.134;5.606;2022-07-06T01:42:29;15.00;99.90
17565;DHT22;55308;52.134;5.606;2022-07-06T01:44:56;14.80;99.90
17565;DHT22;55308;52.134;5.606;2022-07-06T01:47:22;14.90;99.90
17565;DHT22;55308;52.134;5.606;2022-07-06T01:49:49;14.90;99.90
17565;DHT22;55308;52.134;5.606;2022-07-06T01:52:16;14.80;99.90
17565;DHT22;55308;52.134;5.606;2022-07-06T01:54:44;14.80;99.90
17565;DHT22;55308;52.134;5.606;2022-07-06T01:57:11;14.70;99.90
17565;DHT22;55308;52.134;5.606;2022-07-06T01:59:37;14.40;99.90
17565;DHT22;55308;52.134;5.606;2022-07-06T02:02:04;14.40;99.90
17565;DHT22;55308;52.134;5.606;2022-07-06T02:04:31;14.50;99.90
17565;DHT22;55308;52.134;5.606;2022-07-06T02:06:58;14.70;99.90
17565;DHT22;55308;52.134;5.606;2022-07-06T02:09:25;14.80;99.90
17565;DHT22;55308;52.134;5.606;2022-07-06T02:11:53;14.80;99.90
17565;DHT22;55308;52.134;5.606;2022-07-06T02:14:20;14.90;99.90
17565;DHT22;55308;52.134;5.606;2022-07-06T02:16:46;15.00;99.90
17565;DHT22;55308;52.134;5.606;2022-07-06T02:19:13;15.10;99.90
17565;DHT22;55308;52.134;5.606;2022-07-06T02:21:40;15.20;99.90
17565;DHT22;55308;52.134;5.606;2022-07-06T02:24:06;15.30;99.90
17565;DHT22;55308;52.134;5.606;2022-07-06T02:26:34;15.30;99.90
17565;DHT22;55308;52.134;5.606;2022-07-06T02:29:02;15.00;99.90
17565;DHT22;55308;52.134;5.606;2022-07-06T02:31:29;14.80;99.90
17565;DHT22;55308;52.134;5.606;2022-07-06T02:33:55;14.80;99.90
17565;DHT22;55308;52.134;5.606;2022-07-06T02:36:22;14.70;99.90
17565;DHT22;55308;52.134;5.606;2022-07-06T02:38:49;14.80;99.90
17565;DHT22;55308;52.134;5.606;2022-07-06T02:41:15;14.70;99.90
17565;DHT22;55308;52.134;5.606;2022-07-06T02:43:42;14.50;99.90
17565;DHT22;55308;52.134;5.606;2022-07-06T02:46:11;14.60;99.90
17565;DHT22;55308;52.134;5.606;2022-07-06T02:48:37;14.80;99.90
17565;DHT22;55308;52.134;5.606;2022-07-06T02:51:04;14.70;99.90
17565;DHT22;55308;52.134;5.606;2022-07-06T02:53:31;14.70;99.90
17565;DHT22;55308;52.134;5.606;2022-07-06T02:55:57;14.70;99.90
17565;DHT22;55308;52.134;5.606;2022-07-06T02:58:24;14.70;99.90
17565;DHT22;55308;52.134;5.606;2022-07-06T03:00:51;14.70;99.90
17565;DHT22;55308;52.134;5.606;2022-07-06T03:03:19;14.60;99.90
17565;DHT22;55308;52.134;5.606;2022-07-06T03:05:45;14.60;99.90
17565;DHT22;55308;52.134;5.606;2022-07-06T03:08:14;14.50;99.90
17565;DHT22;55308;52.134;5.606;2022-07-06T03:10:41;14.50;99.90
17565;DHT22;55308;52.134;5.606;2022-07-06T03:13:08;14.50;99.90
17565;DHT22;55308;52.134;5.606;2022-07-06T03:15:34;14.60;99.90
17565;DHT22;55308;52.134;5.606;2022-07-06T03:18:01;14.70;99.90
17565;DHT22;55308;52.134;5.606;2022-07-06T03:20:29;14.70;99.90
17565;DHT22;55308;52.134;5.606;2022-07-06T03:22:56;14.40;99.90
17565;DHT22;55308;52.134;5.606;2022-07-06T03:25:23;14.50;99.90
17565;DHT22;55308;52.134;5.606;2022-07-06T03:27:50;14.60;99.90
17565;DHT22;55308;52.134;5.606;2022-07-06T03:30:16;14.60;99.90
17565;DHT22;55308;52.134;5.606;2022-07-06T03:32:43;14.40;99.90
17565;DHT22;55308;52.134;5.606;2022-07-06T03:35:10;14.30;99.90
17565;DHT22;55308;52.134;5.606;2022-07-06T03:37:38;14.30;99.90
17565;DHT22;55308;52.134;5.606;2022-07-06T03:40:06;14.50;99.90
17565;DHT22;55308;52.134;5.606;2022-07-06T03:42:32;14.60;99.90
17565;DHT22;55308;52.134;5.606;2022-07-06T03:44:59;14.60;99.90
17565;DHT22;55308;52.134;5.606;2022-07-06T03:47:26;14.70;99.90
17565;DHT22;55308;52.134;5.606;2022-07-06T03:49:52;14.70;99.90
17565;DHT22;55308;52.134;5.606;2022-07-06T03:52:19;14.70;99.90
17565;DHT22;55308;52.134;5.606;2022-07-06T03:54:47;14.60;99.90
17565;DHT22;55308;52.134;5.606;2022-07-06T03:57:14;14.50;99.90
17565;DHT22;55308;52.134;5.606;2022-07-06T03:59:41;14.50;99.90
17565;DHT22;55308;52.134;5.606;2022-07-06T04:02:07;14.50;99.90
17565;DHT22;55308;52.134;5.606;2022-07-06T04:04:34;14.50;99.90
17565;DHT22;55308;52.134;5.606;2022-07-06T04:07:01;14.50;99.90
17565;DHT22;55308;52.134;5.606;2022-07-06T04:09:28;14.60;99.90
17565;DHT22;55308;52.134;5.606;2022-07-06T04:11:56;14.60;99.90
17565;DHT22;55308;52.134;5.606;2022-07-06T04:14:22;14.70;99.90
17565;DHT22;55308;52.134;5.606;2022-07-06T04:16:49;14.70;99.90
17565;DHT22;55308;52.134;5.606;2022-07-06T04:19:16;14.80;99.90
17565;DHT22;55308;52.134;5.606;2022-07-06T04:21:43;14.90;99.90
17565;DHT22;55308;52.134;5.606;2022-07-06T04:24:09;15.00;99.90
17565;DHT22;55308;52.134;5.606;2022-07-06T04:26:36;14.90;99.90
17565;DHT22;55308;52.134;5.606;2022-07-06T04:29:04;15.00;99.90
17565;DHT22;55308;52.134;5.606;2022-07-06T04:31:31;15.10;99.90
17565;DHT22;55308;52.134;5.606;2022-07-06T04:33:57;15.10;99.90
17565;DHT22;55308;52.134;5.606;2022-07-06T04:36:24;15.00;99.90
17565;DHT22;55308;52.134;5.606;2022-07-06T04:38:51;15.00;99.90
17565;DHT22;55308;52.134;5.606;2022-07-06T04:41:17;15.20;99.90
17565;DHT22;55308;52.134;5.606;2022-07-06T04:43:44;15.20;99.90
17565;DHT22;55308;52.134;5.606;2022-07-06T04:46:12;15.40;99.90
17565;DHT22;55308;52.134;5.606;2022-07-06T04:48:39;15.60;99.90
17565;DHT22;55308;52.134;5.606;2022-07-06T04:51:06;15.70;99.90
17565;DHT22;55308;52.134;5.606;2022-07-06T04:53:32;15.90;99.90
17565;DHT22;55308;52.134;5.606;2022-07-06T04:55:59;15.70;99.90
17565;DHT22;55308;52.134;5.606;2022-07-06T04:58:26;15.90;99.90
17565;DHT22;55308;52.134;5.606;2022-07-06T05:00:52;16.10;99.90
17565;DHT22;55308;52.134;5.606;2022-07-06T05:03:21;16.30;99.90
17565;DHT22;55308;52.134;5.606;2022-07-06T05:05:48;16.40;99.90
17565;DHT22;55308;52.134;5.606;2022-07-06T05:08:14;16.50;99.90
17565;DHT22;55308;52.134;5.606;2022-07-06T05:10:41;16.60;99.90
17565;DHT22;55308;52.134;5.606;2022-07-06T05:13:08;16.70;99.90
17565;DHT22;55308;52.134;5.606;2022-07-06T05:15:35;16.60;99.90
17565;DHT22;55308;52.134;5.606;2022-07-06T05:18:01;16.50;99.90
17565;DHT22;55308;52.134;5.606;2022-07-06T05:20:29;16.60;99.90
17565;DHT22;55308;52.134;5.606;2022-07-06T05:22:56;16.70;99.90
17565;DHT22;55308;52.134;5.606;2022-07-06T05:25:23;16.50;99.90
17565;DHT22;55308;52.134;5.606;2022-07-06T05:27:50;16.60;99.90
17565;DHT22;55308;52.134;5.606;2022-07-06T05:30:16;17.50;99.90
17565;DHT22;55308;52.134;5.606;2022-07-06T05:32:43;18.10;99.90
17565;DHT22;55308;52.134;5.606;2022-07-06T05:35:10;18.90;99.90
17565;DHT22;55308;52.134;5.606;2022-07-06T05:37:38;19.60;99.90
17565;DHT22;55308;52.134;5.606;2022-07-06T05:40:05;20.30;99.90
17565;DHT22;55308;52.134;5.606;2022-07-06T05:42:32;20.10;99.90
17565;DHT22;55308;52.134;5.606;2022-07-06T05:44:59;20.70;99.90
17565;DHT22;55308;52.134;5.606;2022-07-06T05:47:25;21.60;99.90
17565;DHT22;55308;52.134;5.606;2022-07-06T05:50:10;22.90;99.90
17565;DHT22;55308;52.134;5.606;2022-07-06T05:52:42;24.10;99.90
17565;DHT22;55308;52.134;5.606;2022-07-06T05:55:10;22.20;99.90
17565;DHT22;55308;52.134;5.606;2022-07-06T05:57:37;21.90;99.90
17565;DHT22;55308;52.134;5.606;2022-07-06T06:00:07;22.20;99.90
17565;DHT22;55308;52.134;5.606;2022-07-06T06:02:37;21.40;99.90
17565;DHT22;55308;52.134;5.606;2022-07-06T06:05:06;21.90;99.90
17565;DHT22;55308;52.134;5.606;2022-07-06T06:07:33;23.50;99.90
17565;DHT22;55308;52.134;5.606;2022-07-06T06:10:03;25.00;99.90
17565;DHT22;55308;52.134;5.606;2022-07-06T06:12:29;25.60;99.90
17565;DHT22;55308;52.134;5.606;2022-07-06T06:14:56;25.60;99.90
17565;DHT22;55308;52.134;5.606;2022-07-06T06:17:23;27.40;99.90
17565;DHT22;55308;52.134;5.606;2022-07-06T06:19:49;27.30;99.90
17565;DHT22;55308;52.134;5.606;2022-07-06T06:22:16;27.70;99.90
17565;DHT22;55308;52.134;5.606;2022-07-06T06:24:43;27.90;99.90
17565;DHT22;55308;52.134;5.606;2022-07-06T06:27:11;27.00;99.90
17565;DHT22;55308;52.134;5.606;2022-07-06T06:29:38;26.60;99.90
17565;DHT22;55308;52.134;5.606;2022-07-06T06:32:05;27.20;99.90
17565;DHT22;55308;52.134;5.606;2022-07-06T06:34:32;27.20;99.90
17565;DHT22;55308;52.134;5.606;2022-07-06T06:36:59;28.40;99.90
17565;DHT22;55308;52.134;5.606;2022-07-06T06:39:26;28.20;99.90
17565;DHT22;55308;52.134;5.606;2022-07-06T06:41:53;27.50;99.90
17565;DHT22;55308;52.134;5.606;2022-07-06T06:44:21;27.10;99.90
17565;DHT22;55308;52.134;5.606;2022-07-06T06:46:48;27.30;99.90
17565;DHT22;55308;52.134;5.606;2022-07-06T06:49:15;26.30;99.90
17565;DHT22;55308;52.134;5.606;2022-07-06T06:51:42;26.60;99.90
17565;DHT22;55308;52.134;5.606;2022-07-06T06:54:09;27.60;99.90
17565;DHT22;55308;52.134;5.606;2022-07-06T06:56:36;26.20;99.90
17565;DHT22;55308;52.134;5.606;2022-07-06T06:59:03;26.60;99.90
17565;DHT22;55308;52.134;5.606;2022-07-06T07:01:31;26.60;99.90
17565;DHT22;55308;52.134;5.606;2022-07-06T07:03:58;28.60;99.90
17565;DHT22;55308;52.134;5.606;2022-07-06T07:06:25;29.90;99.90
17565;DHT22;55308;52.134;5.606;2022-07-06T07:08:52;30.70;99.90
17565;DHT22;55308;52.134;5.606;2022-07-06T07:11:19;29.60;99.90
17565;DHT22;55308;52.134;5.606;2022-07-06T07:13:46;30.20;99.90
17565;DHT22;55308;52.134;5.606;2022-07-06T07:16:13;30.90;99.90
17565;DHT22;55308;52.134;5.606;2022-07-06T07:18:41;29.90;99.90
17565;DHT22;55308;52.134;5.606;2022-07-06T07:21:08;30.00;99.90
17565;DHT22;55308;52.134;5.606;2022-07-06T07:23:34;29.70;99.90
17565;DHT22;55308;52.134;5.606;2022-07-06T07:26:01;29.70;99.90
17565;DHT22;55308;52.134;5.606;2022-07-06T07:28:28;29.70;99.90
17565;DHT22;55308;52.134;5.606;2022-07-06T07:30:54;30.60;99.90
17565;DHT22;55308;52.134;5.606;2022-07-06T07:33:21;31.20;99.90
17565;DHT22;55308;52.134;5.606;2022-07-06T07:35:49;30.10;99.90
17565;DHT22;55308;52.134;5.606;2022-07-06T07:38:16;30.80;99.90
17565;DHT22;55308;52.134;5.606;2022-07-06T07:40:43;29.60;99.90
17565;DHT22;55308;52.134;5.606;2022-07-06T07:43:09;29.50;99.90
17565;DHT22;55308;52.134;5.606;2022-07-06T07:45:36;28.20;99.90
17565;DHT22;55308;52.134;5.606;2022-07-06T07:48:04;27.30;99.90
17565;DHT22;55308;52.134;5.606;2022-07-06T07:50:30;27.40;99.90
17565;DHT22;55308;52.134;5.606;2022-07-06T07:52:58;28.50;99.90
17565;DHT22;55308;52.134;5.606;2022-07-06T07:55:25;30.50;99.90
17565;DHT22;55308;52.134;5.606;2022-07-06T07:57:52;31.40;99.90
17565;DHT22;55308;52.134;5.606;2022-07-06T08:00:19;31.20;99.90
17565;DHT22;55308;52.134;5.606;2022-07-06T08:02:46;30.00;99.90
17565;DHT22;55308;52.134;5.606;2022-07-06T08:05:13;31.20;99.90
17565;DHT22;55308;52.134;5.606;2022-07-06T08:07:41;31.80;99.90
17565;DHT22;55308;52.134;5.606;2022-07-06T08:10:09;32.50;99.90
17565;DHT22;55308;52.134;5.606;2022-07-06T08:12:37;32.50;99.90
17565;DHT22;55308;52.134;5.606;2022-07-06T08:15:04;32.80;99.90
17565;DHT22;55308;52.134;5.606;2022-07-06T08:17:31;32.40;99.90
17565;DHT22;55308;52.134;5.606;2022-07-06T08:19:58;30.70;99.90
17565;DHT22;55308;52.134;5.606;2022-07-06T08:22:25;30.10;99.90
17565;DHT22;55308;52.134;5.606;2022-07-06T08:24:52;29.40;99.90
17565;DHT22;55308;52.134;5.606;2022-07-06T08:27:20;29.50;99.90
17565;DHT22;55308;52.134;5.606;2022-07-06T08:29:47;28.30;99.90
17565;DHT22;55308;52.134;5.606;2022-07-06T08:32:13;28.40;99.90
17565;DHT22;55308;52.134;5.606;2022-07-06T08:34:40;27.70;99.90
17565;DHT22;55308;52.134;5.606;2022-07-06T08:37:08;27.20;99.90
17565;DHT22;55308;52.134;5.606;2022-07-06T08:39:35;26.90;99.90
17565;DHT22;55308;52.134;5.606;2022-07-06T08:42:02;26.40;99.90
17565;DHT22;55308;52.134;5.606;2022-07-06T08:44:31;25.90;99.90
17565;DHT22;55308;52.134;5.606;2022-07-06T08:46:58;26.40;99.90
17565;DHT22;55308;52.134;5.606;2022-07-06T08:49:27;26.40;99.90
17565;DHT22;55308;52.134;5.606;2022-07-06T08:51:54;25.80;99.90
17565;DHT22;55308;52.134;5.606;2022-07-06T08:54:21;25.70;99.90
17565;DHT22;55308;52.134;5.606;2022-07-06T08:56:48;26.80;99.90
17565;DHT22;55308;52.134;5.606;2022-07-06T08:59:15;28.20;99.90
17565;DHT22;55308;52.134;5.606;2022-07-06T09:01:44;28.80;99.90
17565;DHT22;55308;52.134;5.606;2022-07-06T09:04:12;26.70;99.90
17565;DHT22;55308;52.134;5.606;2022-07-06T09:06:41;25.50;99.90
17565;DHT22;55308;52.134;5.606;2022-07-06T09:09:09;26.10;99.90
17565;DHT22;55308;52.134;5.606;2022-07-06T09:11:36;28.30;99.90
17565;DHT22;55308;52.134;5.606;2022-07-06T09:14:03;29.70;99.90
17565;DHT22;55308;52.134;5.606;2022-07-06T09:16:30;31.10;99.90
17565;DHT22;55308;52.134;5.606;2022-07-06T09:18:59;31.40;99.90
17565;DHT22;55308;52.134;5.606;2022-07-06T09:21:28;32.00;99.90
17565;DHT22;55308;52.134;5.606;2022-07-06T09:23:56;32.60;99.90
17565;DHT22;55308;52.134;5.606;2022-07-06T09:26:24;32.20;99.90
17565;DHT22;55308;52.134;5.606;2022-07-06T09:28:51;30.30;99.90
17565;DHT22;55308;52.134;5.606;2022-07-06T09:31:18;31.10;99.90
17565;DHT22;55308;52.134;5.606;2022-07-06T09:33:55;31.00;99.90
17565;DHT22;55308;52.134;5.606;2022-07-06T09:36:43;29.80;99.90
17565;DHT22;55308;52.134;5.606;2022-07-06T09:39:18;30.60;99.90
17565;DHT22;55308;52.134;5.606;2022-07-06T09:41:46;30.80;99.90
17565;DHT22;55308;52.134;5.606;2022-07-06T09:44:12;30.70;99.90
17565;DHT22;55308;52.134;5.606;2022-07-06T09:46:40;30.60;99.90
17565;DHT22;55308;52.134;5.606;2022-07-06T09:49:07;30.10;99.90
17565;DHT22;55308;52.134;5.606;2022-07-06T09:51:36;29.40;99.90
17565;DHT22;55308;52.134;5.606;2022-07-06T09:54:06;29.40;99.90
17565;DHT22;55308;52.134;5.606;2022-07-06T09:56:37;28.60;99.90
17565;DHT22;55308;52.134;5.606;2022-07-06T09:59:08;27.30;99.90
17565;DHT22;55308;52.134;5.606;2022-07-06T10:01:35;28.00;99.90
17565;DHT22;55308;52.134;5.606;2022-07-06T10:04:02;27.30;99.90
17565;DHT22;55308;52.134;5.606;2022-07-06T10:06:29;27.30;99.90
17565;DHT22;55308;52.134;5.606;2022-07-06T10:08:57;27.80;99.90
17565;DHT22;55308;52.134;5.606;2022-07-06T10:11:28;27.70;99.90
17565;DHT22;55308;52.134;5.606;2022-07-06T10:13:56;26.50;99.90
17565;DHT22;55308;52.134;5.606;2022-07-06T10:16:24;27.40;99.90
17565;DHT22;55308;52.134;5.606;2022-07-06T10:18:51;27.00;99.90
17565;DHT22;55308;52.134;5.606;2022-07-06T10:21:20;27.90;99.90
17565;DHT22;55308;52.134;5.606;2022-07-06T10:23:48;27.70;99.90
17565;DHT22;55308;52.134;5.606;2022-07-06T10:26:16;26.90;99.90
17565;DHT22;55308;52.134;5.606;2022-07-06T10:28:45;26.60;99.90
17565;DHT22;55308;52.134;5.606;2022-07-06T10:31:13;26.60;99.90
17565;DHT22;55308;52.134;5.606;2022-07-06T10:33:41;27.10;99.90
17565;DHT22;55308;52.134;5.606;2022-07-06T10:36:08;28.90;99.90
17565;DHT22;55308;52.134;5.606;2022-07-06T10:38:35;29.20;99.90
17565;DHT22;55308;52.134;5.606;2022-07-06T10:41:03;29.40;99.90
17565;DHT22;55308;52.134;5.606;2022-07-06T10:43:36;28.60;99.90
17565;DHT22;55308;52.134;5.606;2022-07-06T10:46:09;28.40;99.90
17565;DHT22;55308;52.134;5.606;2022-07-06T10:48:37;28.50;99.90
17565;DHT22;55308;52.134;5.606;2022-07-06T10:51:04;28.30;99.90
17565;DHT22;55308;52.134;5.606;2022-07-06T10:53:34;29.00;99.90
17565;DHT22;55308;52.134;5.606;2022-07-06T10:56:03;28.80;99.90
17565;DHT22;55308;52.134;5.606;2022-07-06T10:58:54;27.50;99.90
17565;DHT22;55308;52.134;5.606;2022-07-06T11:01:22;26.20;99.90
17565;DHT22;55308;52.134;5.606;2022-07-06T11:03:50;27.00;99.90
17565;DHT22;55308;52.134;5.606;2022-07-06T11:06:32;27.00;99.90
17565;DHT22;55308;52.134;5.606;2022-07-06T11:09:00;27.20;99.90
17565;DHT22;55308;52.134;5.606;2022-07-06T11:11:39;27.50;99.90
17565;DHT22;55308;52.134;5.606;2022-07-06T11:14:08;27.30;99.90
17565;DHT22;55308;52.134;5.606;2022-07-06T11:16:39;25.90;99.90
17565;DHT22;55308;52.134;5.606;2022-07-06T11:19:08;26.20;99.90
17565;DHT22;55308;52.134;5.606;2022-07-06T11:21:38;26.40;99.90
17565;DHT22;55308;52.134;5.606;2022-07-06T11:24:07;26.00;99.90
17565;DHT22;55308;52.134;5.606;2022-07-06T11:26:35;26.40;99.90
17565;DHT22;55308;52.134;5.606;2022-07-06T11:29:04;26.30;99.90
17565;DHT22;55308;52.134;5.606;2022-07-06T11:31:33;26.40;99.90
17565;DHT22;55308;52.134;5.606;2022-07-06T11:34:02;26.50;99.90
17565;DHT22;55308;52.134;5.606;2022-07-06T11:36:29;27.40;99.90
17565;DHT22;55308;52.134;5.606;2022-07-06T11:38:56;27.40;99.90
17565;DHT22;55308;52.134;5.606;2022-07-06T11:41:23;27.20;99.90
17565;DHT22;55308;52.134;5.606;2022-07-06T11:43:50;27.50;99.90
17565;DHT22;55308;52.134;5.606;2022-07-06T11:46:22;27.40;99.90
17565;DHT22;55308;52.134;5.606;2022-07-06T11:48:49;27.40;99.90
17565;DHT22;55308;52.134;5.606;2022-07-06T11:51:18;27.30;99.90
17565;DHT22;55308;52.134;5.606;2022-07-06T11:53:46;26.70;99.90
17565;DHT22;55308;52.134;5.606;2022-07-06T11:56:14;26.20;99.90
17565;DHT22;55308;52.134;5.606;2022-07-06T11:58:41;26.40;99.90
17565;DHT22;55308;52.134;5.606;2022-07-06T12:01:10;26.40;99.90
17565;DHT22;55308;52.134;5.606;2022-07-06T12:03:37;26.40;99.90
17565;DHT22;55308;52.134;5.606;2022-07-06T12:06:05;26.40;99.90
17565;DHT22;55308;52.134;5.606;2022-07-06T12:08:41;26.50;99.90
17565;DHT22;55308;52.134;5.606;2022-07-06T12:11:08;26.20;99.90
17565;DHT22;55308;52.134;5.606;2022-07-06T12:13:36;26.70;99.90
17565;DHT22;55308;52.134;5.606;2022-07-06T12:16:09;26.80;99.90
17565;DHT22;55308;52.134;5.606;2022-07-06T12:18:37;26.90;99.90
17565;DHT22;55308;52.134;5.606;2022-07-06T12:21:06;27.10;99.90
17565;DHT22;55308;52.134;5.606;2022-07-06T12:23:41;27.10;99.90
17565;DHT22;55308;52.134;5.606;2022-07-06T12:26:09;26.60;99.90
17565;DHT22;55308;52.134;5.606;2022-07-06T12:28:36;26.80;99.90
17565;DHT22;55308;52.134;5.606;2022-07-06T12:31:03;26.60;99.90
17565;DHT22;55308;52.134;5.606;2022-07-06T12:33:30;26.70;99.90
17565;DHT22;55308;52.134;5.606;2022-07-06T12:36:05;26.70;99.90
17565;DHT22;55308;52.134;5.606;2022-07-06T12:38:34;25.80;99.90
17565;DHT22;55308;52.134;5.606;2022-07-06T12:41:02;26.20;99.90
17565;DHT22;55308;52.134;5.606;2022-07-06T12:43:36;25.80;99.90
17565;DHT22;55308;52.134;5.606;2022-07-06T12:46:34;26.00;99.90
17565;DHT22;55308;52.134;5.606;2022-07-06T12:49:04;26.00;99.90
17565;DHT22;55308;52.134;5.606;2022-07-06T12:51:58;26.40;99.90
17565;DHT22;55308;52.134;5.606;2022-07-06T12:54:27;26.40;99.90
17565;DHT22;55308;52.134;5.606;2022-07-06T12:57:07;26.50;99.90
17565;DHT22;55308;52.134;5.606;2022-07-06T12:59:37;27.00;99.90
17565;DHT22;55308;52.134;5.606;2022-07-06T13:02:06;26.90;99.90
17565;DHT22;55308;52.134;5.606;2022-07-06T13:04:35;26.90;99.90
17565;DHT22;55308;52.134;5.606;2022-07-06T13:07:03;26.40;99.90
17565;DHT22;55308;52.134;5.606;2022-07-06T13:09:30;26.00;99.90
17565;DHT22;55308;52.134;5.606;2022-07-06T13:11:56;26.20;99.90
17565;DHT22;55308;52.134;5.606;2022-07-06T13:14:24;26.70;99.90
17565;DHT22;55308;52.134;5.606;2022-07-06T13:16:51;26.10;99.90
17565;DHT22;55308;52.134;5.606;2022-07-06T13:19:19;26.00;99.90
17565;DHT22;55308;52.134;5.606;2022-07-06T13:21:46;26.20;99.90
17565;DHT22;55308;52.134;5.606;2022-07-06T13:24:12;26.90;99.90
17565;DHT22;55308;52.134;5.606;2022-07-06T13:26:39;27.30;99.90
17565;DHT22;55308;52.134;5.606;2022-07-06T13:29:06;27.60;99.90
17565;DHT22;55308;52.134;5.606;2022-07-06T13:31:38;27.60;99.90
17565;DHT22;55308;52.134;5.606;2022-07-06T13:34:06;27.10;99.90
17565;DHT22;55308;52.134;5.606;2022-07-06T13:36:33;26.70;99.90
17565;DHT22;55308;52.134;5.606;2022-07-06T13:39:00;26.30;99.90
17565;DHT22;55308;52.134;5.606;2022-07-06T13:41:27;26.50;99.90
17565;DHT22;55308;52.134;5.606;2022-07-06T13:43:53;27.20;99.90
17565;DHT22;55308;52.134;5.606;2022-07-06T13:46:20;26.80;99.90
17565;DHT22;55308;52.134;5.606;2022-07-06T13:48:49;26.60;99.90
17565;DHT22;55308;52.134;5.606;2022-07-06T13:51:17;26.30;99.90
17565;DHT22;55308;52.134;5.606;2022-07-06T13:53:44;26.30;99.90
17565;DHT22;55308;52.134;5.606;2022-07-06T13:56:12;27.30;99.90
17565;DHT22;55308;52.134;5.606;2022-07-06T13:58:38;26.50;99.90
17565;DHT22;55308;52.134;5.606;2022-07-06T14:01:05;25.90;99.90
17565;DHT22;55308;52.134;5.606;2022-07-06T14:03:32;25.80;99.90
17565;DHT22;55308;52.134;5.606;2022-07-06T14:06:01;26.40;99.90
17565;DHT22;55308;52.134;5.606;2022-07-06T14:08:28;26.20;99.90
17565;DHT22;55308;52.134;5.606;2022-07-06T14:10:55;25.90;99.90
17565;DHT22;55308;52.134;5.606;2022-07-06T14:13:22;25.90;99.90
17565;DHT22;55308;52.134;5.606;2022-07-06T14:15:49;26.30;99.90
17565;DHT22;55308;52.134;5.606;2022-07-06T14:18:16;26.50;99.90
17565;DHT22;55308;52.134;5.606;2022-07-06T14:20:44;26.10;99.90
17565;DHT22;55308;52.134;5.606;2022-07-06T14:23:12;26.20;99.90
17565;DHT22;55308;52.134;5.606;2022-07-06T14:25:39;25.60;99.90
17565;DHT22;55308;52.134;5.606;2022-07-06T14:28:06;25.40;99.90
17565;DHT22;55308;52.134;5.606;2022-07-06T14:30:33;25.70;99.90
17565;DHT22;55308;52.134;5.606;2022-07-06T14:33:02;25.60;99.90
17565;DHT22;55308;52.134;5.606;2022-07-06T14:35:32;25.50;99.90
17565;DHT22;55308;52.134;5.606;2022-07-06T14:37:59;25.10;99.90
17565;DHT22;55308;52.134;5.606;2022-07-06T14:40:27;24.80;99.90
17565;DHT22;55308;52.134;5.606;2022-07-06T14:42:54;25.00;99.90
17565;DHT22;55308;52.134;5.606;2022-07-06T14:45:21;25.60;99.90
17565;DHT22;55308;52.134;5.606;2022-07-06T14:47:47;25.30;99.90
17565;DHT22;55308;52.134;5.606;2022-07-06T14:50:14;25.20;99.90
17565;DHT22;55308;52.134;5.606;2022-07-06T14:52:41;25.30;99.90
17565;DHT22;55308;52.134;5.606;2022-07-06T14:55:08;25.30;99.90
17565;DHT22;55308;52.134;5.606;2022-07-06T14:57:36;25.50;99.90
17565;DHT22;55308;52.134;5.606;2022-07-06T15:00:03;25.60;99.90
17565;DHT22;55308;52.134;5.606;2022-07-06T15:02:30;25.40;99.90
17565;DHT22;55308;52.134;5.606;2022-07-06T15:04:57;25.40;99.90
17565;DHT22;55308;52.134;5.606;2022-07-06T15:07:24;25.80;99.90
17565;DHT22;55308;52.134;5.606;2022-07-06T15:09:50;25.80;99.90
17565;DHT22;55308;52.134;5.606;2022-07-06T15:12:17;26.20;99.90
17565;DHT22;55308;52.134;5.606;2022-07-06T15:14:45;26.20;99.90
17565;DHT22;55308;52.134;5.606;2022-07-06T15:17:12;25.70;99.90
17565;DHT22;55308;52.134;5.606;2022-07-06T15:19:38;25.60;99.90
17565;DHT22;55308;52.134;5.606;2022-07-06T15:22:06;25.30;99.90
17565;DHT22;55308;52.134;5.606;2022-07-06T15:24:33;25.20;99.90
17565;DHT22;55308;52.134;5.606;2022-07-06T15:26:59;25.60;99.90
17565;DHT22;55308;52.134;5.606;2022-07-06T15:29:27;25.60;99.90
17565;DHT22;55308;52.134;5.606;2022-07-06T15:31:55;25.30;99.90
17565;DHT22;55308;52.134;5.606;2022-07-06T15:34:22;25.30;99.90